Terminal Aerodrome Forecast
Issued by NWS

Current Version | Previous Version | Text Only | Print | Product List | Glossary Off
Versions: 1 2 3 4 5 6 7 8 9 10 11 12 13 14 15 16 17 18 19

000
FTUS41 KPBZ 182325
TAFMGW
TAF
KMGW 182325Z 1900/1924 11005KT P6SM SCT250
     FM191000 16009KT P6SM VCSH BKN100 WS020/21035KT
     FM191300 18010G19KT P6SM -RA OVC025 WS020/21035KT
     FM191800 20012G21KT P6SM BKN035=

USA.gov is the U.S. government's official web portal to all federal, state and local government web resources and services.